Time;durP1;ratioP1;P1;durP2;ratioP2;P2;SDS_P1;SDS_P2;PMS_P1;PMS_P2;Temp;Humidity;BMP_temperature;BMP_pressure;BME280_temperature;BME280_humidity;BME280_pressure;Samples;Min_cycle;Max_cycle;Signal;HPM_P1;HPM_P2
2022/05/15 00:02:32;;;;;;;16.27;4.13;;;;;;;10.54;91.80;102204.16;4989387;28;20398;-73
2022/05/15 00:04:57;;;;;;;15.68;3.75;;;;;;;10.53;91.04;102211.22;4956939;28;20038;-73
2022/05/15 00:07:23;;;;;;;12.45;3.33;;;;;;;10.44;88.57;102201.38;4975499;28;20287;-72
2022/05/15 00:09:48;;;;;;;18.67;4.13;;;;;;;10.56;86.33;102220.72;4944245;28;20085;-72
2022/05/15 00:12:16;;;;;;;11.00;3.53;;;;;;;10.53;85.27;102220.94;4976445;28;20275;-72
2022/05/15 00:14:42;;;;;;;10.88;4.35;;;;;;;10.39;84.54;102195.63;4979270;28;20114;-72
2022/05/15 00:17:08;;;;;;;10.98;3.22;;;;;;;10.45;83.56;102210.97;4956343;28;20038;-73
2022/05/15 00:19:34;;;;;;;10.95;3.47;;;;;;;10.31;83.27;102184.78;4974607;28;20035;-73
2022/05/15 00:21:59;;;;;;;14.43;4.18;;;;;;;10.24;83.69;102177.28;4979875;28;20030;-73
2022/05/15 00:24:28;;;;;;;9.02;3.13;;;;;;;10.38;83.66;102204.47;4957794;28;20402;-73
2022/05/15 00:26:53;;;;;;;11.95;4.00;;;;;;;10.36;82.99;102211.66;4982387;28;20181;-72
2022/05/15 00:29:19;;;;;;;11.02;3.80;;;;;;;10.34;82.53;102210.94;4976330;28;20525;-72
2022/05/15 00:31:44;;;;;;;6.90;3.25;;;;;;;10.32;82.24;102215.47;4988511;28;20088;-72
2022/05/15 00:34:10;;;;;;;9.30;3.50;;;;;;;10.28;81.60;102210.41;4975306;28;20073;-72
2022/05/15 00:36:35;;;;;;;10.80;3.60;;;;;;;10.26;82.15;102212.31;4975915;28;20077;-72
2022/05/15 00:39:00;;;;;;;13.77;4.82;;;;;;;10.23;81.52;102220.44;4975697;28;20027;-72
2022/05/15 00:41:26;;;;;;;9.38;3.80;;;;;;;10.20;82.70;102212.78;4975745;28;20541;-72
2022/05/15 00:43:55;;;;;;;10.88;3.65;;;;;;;10.03;82.04;102190.28;4984494;28;20125;-72
2022/05/15 00:46:39;;;;;;;7.72;4.18;;;;;;;10.11;81.99;102208.19;4979545;28;20478;-72
2022/05/15 00:49:07;;;;;;;11.90;4.07;;;;;;;10.02;83.46;102207.06;4971303;28;20134;-72
2022/05/15 00:51:59;;;;;;;8.10;3.47;;;;;;;10.00;84.38;102210.78;4966197;28;20022;-73
2022/05/15 00:54:31;;;;;;;8.77;3.22;;;;;;;9.97;84.55;102209.19;4979288;28;20074;-73
2022/05/15 00:57:29;;;;;;;11.80;3.58;;;;;;;9.95;83.67;102212.91;4978277;28;20092;-73
2022/05/15 01:00:07;;;;;;;12.15;4.45;;;;;;;9.92;83.18;102213.13;4976742;28;20031;-73
2022/05/15 01:02:37;;;;;;;13.63;3.75;;;;;;;9.88;83.96;102213.34;4978307;28;20030;-73
2022/05/15 01:05:04;;;;;;;14.15;4.80;;;;;;;9.69;83.96;102189.28;4979142;28;20360;-73
2022/05/15 01:07:29;;;;;;;8.95;4.30;;;;;;;9.82;84.12;102210.31;4966926;28;20034;-73
2022/05/15 01:09:55;;;;;;;12.85;5.35;;;;;;;9.75;85.06;102204.63;4978872;28;20041;-73
2022/05/15 01:12:21;;;;;;;13.20;4.38;;;;;;;9.69;84.41;102191.94;4951216;28;20442;-73
2022/05/15 01:14:47;;;;;;;8.82;3.90;;;;;;;9.75;85.13;102209.91;4977731;28;20030;-73
2022/05/15 01:17:13;;;;;;;12.15;4.10;;;;;;;9.64;85.61;102194.03;4989178;28;20438;-73
2022/05/15 01:19:41;;;;;;;9.85;3.42;;;;;;;9.67;85.61;102199.94;4976511;28;20039;-72
2022/05/15 01:22:11;;;;;;;13.10;3.42;;;;;;;9.63;84.55;102205.53;4979145;28;20030;-72
2022/05/15 01:24:37;;;;;;;9.88;3.40;;;;;;;9.60;84.34;102200.47;4959906;28;20057;-73
2022/05/15 01:27:09;;;;;;;9.63;4.03;;;;;;;9.48;84.11;102189.03;4960410;28;20058;-73
2022/05/15 01:29:40;;;;;;;15.73;3.53;;;;;;;9.51;84.07;102195.88;4976541;28;20054;-72
2022/05/15 01:32:06;;;;;;;;;;;;;;;9.51;84.32;102199.34;4961298;28;20068;-72
2022/05/15 01:34:31;;;;;;;8.20;3.42;;;;;;;9.47;84.38;102211.91;4993169;28;19949;-72
2022/05/15 01:36:59;;;;;;;10.18;2.75;;;;;;;9.44;84.36;102209.47;4970103;28;20028;-72
2022/05/15 01:39:25;;;;;;;6.10;2.72;;;;;;;9.34;84.88;102183.91;4980596;28;20048;-72
2022/05/15 01:41:51;;;;;;;13.63;4.07;;;;;;;9.40;84.60;102202.75;4982511;28;20026;-72
2022/05/15 01:44:16;;;;;;;9.93;3.67;;;;;;;9.37;84.98;102202.97;4965448;28;20041;-72
2022/05/15 01:46:42;;;;;;;9.55;4.00;;;;;;;9.19;85.46;102180.53;4976838;28;20054;-72
2022/05/15 01:49:07;;;;;;;8.95;2.85;;;;;;;9.32;85.43;102205.09;4971288;28;20082;-72
2022/05/15 01:51:34;;;;;;;11.75;4.05;;;;;;;9.10;86.33;102168.88;4977328;28;20038;-72
2022/05/15 01:54:03;;;;;;;10.60;3.53;;;;;;;9.20;85.98;102180.44;4965789;28;20042;-72
2022/05/15 01:56:29;;;;;;;9.43;4.28;;;;;;;9.28;88.91;102193.09;4980749;28;20375;-72
2022/05/15 01:58:55;;;;;;;9.88;3.42;;;;;;;9.26;90.21;102195.00;4980716;28;20072;-72
2022/05/15 02:01:21;;;;;;;6.95;3.00;;;;;;;9.11;88.94;102183.75;4967343;28;20121;-73
2022/05/15 02:03:47;;;;;;;8.07;3.33;;;;;;;9.21;88.23;102202.34;4962940;28;20112;-73
2022/05/15 02:06:12;;;;;;;16.23;5.63;;;;;;;9.22;88.79;102196.16;4982832;28;20085;-73
2022/05/15 02:08:38;;;;;;;13.70;3.42;;;;;;;9.24;91.23;102207.44;4980388;28;20034;-73
2022/05/15 02:11:04;;;;;;;11.55;3.83;;;;;;;9.19;90.58;102199.00;4981885;28;20445;-73
2022/05/15 02:13:31;;;;;;;9.15;3.35;;;;;;;9.04;89.22;102191.22;4982629;28;20066;-73
2022/05/15 02:15:57;;;;;;;15.98;3.20;;;;;;;8.98;87.27;102182.91;4980189;28;20448;-73
2022/05/15 02:18:23;;;;;;;11.63;2.58;;;;;;;8.90;86.29;102170.25;4985347;28;20470;-73
2022/05/15 02:20:49;;;;;;;7.38;3.25;;;;;;;8.89;85.65;102170.41;4969044;28;20030;-73
2022/05/15 02:23:14;;;;;;;11.52;3.55;;;;;;;9.00;86.33;102200.28;4969227;28;20374;-73
2022/05/15 02:25:40;;;;;;;11.65;3.22;;;;;;;8.91;86.33;102185.13;4980365;28;20034;-73
2022/05/15 02:28:07;;;;;;;12.30;3.55;;;;;;;8.98;86.78;102203.97;4965627;28;20053;-73
2022/05/15 02:30:32;;;;;;;11.20;3.55;;;;;;;8.95;87.54;102206.81;4990180;28;20034;-73
2022/05/15 02:32:57;;;;;;;12.43;3.42;;;;;;;8.95;87.61;102212.06;4976480;28;20039;-73
2022/05/15 02:35:23;;;;;;;10.63;3.10;;;;;;;8.92;87.44;102207.88;4985078;28;20034;-73
2022/05/15 02:37:48;;;;;;;10.18;3.80;;;;;;;8.77;86.54;102183.44;4974684;28;20031;-73
2022/05/15 02:40:19;;;;;;;10.05;3.95;;;;;;;8.84;86.21;102202.28;4989394;28;20390;-73
2022/05/15 02:42:44;;;;;;;10.07;3.55;;;;;;;8.87;86.56;102220.50;4984289;28;20026;-73
2022/05/15 02:45:11;;;;;;;10.77;3.50;;;;;;;8.86;86.88;102218.81;4985715;28;20084;-72
2022/05/15 02:47:36;;;;;;;9.32;4.15;;;;;;;8.78;86.70;102200.09;4968027;28;20062;-72
2022/05/15 02:52:47;;;;;;;9.10;3.88;;;;;;;8.83;87.20;102213.78;4988555;28;20093;-71
2022/05/15 02:55:13;;;;;;;9.32;3.85;;;;;;;8.82;87.54;102220.00;4984168;28;20034;-72
2022/05/15 02:57:40;;;;;;;11.13;4.88;;;;;;;8.81;87.44;102215.66;4991031;28;20023;-72
2022/05/15 03:00:09;;;;;;;6.63;3.38;;;;;;;8.74;86.89;102214.41;4984559;28;20156;-72
2022/05/15 03:02:39;;;;;;;13.63;4.00;;;;;;;8.69;86.71;102211.22;4989367;28;20042;-72
2022/05/15 03:05:05;;;;;;;14.60;4.57;;;;;;;8.67;86.63;102202.59;4941667;28;20089;-71
2022/05/15 03:07:30;;;;;;;7.35;3.38;;;;;;;8.70;87.13;102224.28;4982020;28;20038;-72
2022/05/15 03:09:56;;;;;;;12.77;3.38;;;;;;;8.70;87.39;102218.19;4957091;28;20496;-71
2022/05/15 03:12:21;;;;;;;11.50;3.47;;;;;;;8.67;86.55;102221.88;4987959;28;20470;-72
2022/05/15 03:14:46;;;;;;;10.82;3.33;;;;;;;8.65;87.18;102216.72;4985642;28;20449;-72
2022/05/15 03:17:12;;;;;;;13.02;3.63;;;;;;;8.53;87.00;102200.91;4979883;28;20034;-72
2022/05/15 03:19:37;;;;;;;8.88;3.33;;;;;;;8.61;87.97;102219.66;4948256;28;20038;-71
2022/05/15 03:22:03;;;;;;;10.13;3.70;;;;;;;8.48;87.53;102214.38;4987791;28;20035;-72
2022/05/15 03:24:29;;;;;;;9.35;3.90;;;;;;;8.47;86.91;102219.72;4965723;28;20039;-72
2022/05/15 03:26:54;;;;;;;9.15;3.55;;;;;;;8.50;86.52;102216.91;4983738;28;20097;-72
2022/05/15 03:29:20;;;;;;;7.05;2.83;;;;;;;8.47;86.22;102223.22;4968584;28;20054;-72
2022/05/15 03:31:46;;;;;;;7.75;2.70;;;;;;;8.44;85.59;102213.72;4983908;28;20022;-71
2022/05/15 03:34:13;;;;;;;8.38;3.65;;;;;;;8.37;86.28;102211.59;4972593;28;20035;-72
2022/05/15 03:36:40;;;;;;;5.38;2.35;;;;;;;8.33;85.95;102216.19;4969645;28;20022;-72
2022/05/15 03:39:08;;;;;;;6.10;2.60;;;;;;;8.30;86.08;102216.41;4983503;28;20040;-72
2022/05/15 03:41:34;;;;;;;7.80;3.28;;;;;;;8.29;86.24;102213.88;4987614;28;20105;-71
2022/05/15 03:44:00;;;;;;;9.00;3.20;;;;;;;8.28;85.86;102213.03;4963152;28;20038;-72
2022/05/15 03:46:25;;;;;;;6.90;2.60;;;;;;;8.28;85.92;102220.09;4984238;28;20038;-72
2022/05/15 03:48:52;;;;;;;11.85;3.38;;;;;;;8.27;86.35;102213.97;4968262;28;20038;-71
2022/05/15 03:51:17;;;;;;;7.25;2.38;;;;;;;8.29;86.47;102219.13;4965981;28;20126;-72
2022/05/15 03:53:43;;;;;;;4.50;2.30;;;;;;;8.30;86.36;102215.59;4981707;28;20565;-72
2022/05/15 03:56:08;;;;;;;4.75;2.28;;;;;;;8.24;85.18;102208.94;4957160;28;20121;-72
2022/05/15 03:58:36;;;;;;;8.40;3.50;;;;;;;8.30;84.76;102213.78;4984852;28;20117;-71
2022/05/15 04:01:03;;;;;;;4.68;2.38;;;;;;;8.27;84.87;102219.22;4986720;28;20081;-71
2022/05/15 04:03:28;;;;;;;5.55;2.20;;;;;;;8.24;85.73;102207.13;4969237;28;20043;-71
2022/05/15 04:05:53;;;;;;;6.35;2.63;;;;;;;8.31;86.24;102220.72;4984318;28;20035;-72
2022/05/15 04:08:19;;;;;;;11.85;2.47;;;;;;;8.30;85.57;102216.41;4986324;28;20031;-72
2022/05/15 04:10:44;;;;;;;3.75;1.70;;;;;;;8.29;86.04;102219.13;4963451;28;20101;-72
2022/05/15 04:13:10;;;;;;;5.68;2.22;;;;;;;8.27;86.97;102205.25;4986264;28;20102;-72
2022/05/15 04:15:36;;;;;;;5.57;2.15;;;;;;;8.38;86.78;102221.16;4986776;28;20068;-72
2022/05/15 04:18:02;;;;;;;5.93;1.88;;;;;;;8.39;86.50;102221.06;4984963;28;20034;-71
2022/05/15 04:20:29;;;;;;;8.43;2.20;;;;;;;8.45;88.10;102225.13;4985333;28;20034;-72
2022/05/15 04:22:55;;;;;;;5.03;2.10;;;;;;;8.47;87.75;102228.47;4984705;28;20432;-72
2022/05/15 04:25:21;;;;;;;5.15;2.00;;;;;;;8.51;86.67;102229.94;4984450;28;20030;-71
2022/05/15 04:27:47;;;;;;;6.07;2.05;;;;;;;8.57;86.17;102236.59;4988342;28;20047;-71
2022/05/15 04:30:17;;;;;;;7.07;1.85;;;;;;;8.63;86.47;102236.19;4979183;28;20498;-72
2022/05/15 04:32:44;;;;;;;10.43;2.30;;;;;;;8.69;86.28;102233.16;4968356;28;20449;-72
2022/05/15 04:35:10;;;;;;;6.38;2.42;;;;;;;8.73;86.15;102228.50;4976435;28;20110;-71
2022/05/15 04:37:36;;;;;;;6.10;2.45;;;;;;;8.75;85.06;102231.88;4958540;28;20081;-71
2022/05/15 04:40:02;;;;;;;9.00;2.97;;;;;;;8.78;84.64;102231.69;4964024;28;20446;-73
2022/05/15 04:42:28;;;;;;;9.63;2.80;;;;;;;8.84;85.72;102229.47;4989444;28;20026;-72
2022/05/15 04:44:53;;;;;;;10.98;3.03;;;;;;;8.91;86.30;102232.53;4985902;28;20166;-71
2022/05/15 04:47:19;;;;;;;8.15;2.58;;;;;;;8.98;85.51;102231.16;4986487;28;20041;-71
2022/05/15 04:49:44;;;;;;;7.80;2.33;;;;;;;9.02;85.70;102227.34;4952005;28;20026;-71
2022/05/15 04:52:10;;;;;;;8.63;2.92;;;;;;;9.16;86.62;102236.94;4983832;28;20034;-71
2022/05/15 04:54:37;;;;;;;7.05;3.15;;;;;;;9.20;88.09;102216.50;4970041;28;20033;-71
2022/05/15 04:57:03;;;;;;;4.72;3.50;;;;;;;9.43;87.89;102233.34;4965794;28;20092;-73
2022/05/15 04:59:28;;;;;;;16.35;3.67;;;;;;;9.53;89.83;102231.69;4971235;28;20474;-73
2022/05/15 05:01:53;;;;;;;12.55;4.20;;;;;;;9.68;91.98;102237.69;4957122;28;20529;-71
2022/05/15 05:04:19;;;;;;;13.60;3.80;;;;;;;9.64;94.34;102221.22;4980105;28;20023;-72
2022/05/15 05:06:44;;;;;;;13.27;3.67;;;;;;;9.81;95.97;102237.63;4973121;28;20070;-72
2022/05/15 05:09:11;;;;;;;20.05;3.85;;;;;;;9.85;96.08;102234.66;4972276;28;20038;-72
2022/05/15 05:11:37;;;;;;;12.43;3.47;;;;;;;9.85;96.88;102234.66;4971666;28;20855;-73
2022/05/15 05:14:03;;;;;;;14.73;3.92;;;;;;;9.86;98.14;102233.72;4984506;28;20019;-72
2022/05/15 05:16:30;;;;;;;21.52;4.35;;;;;;;9.95;98.56;102234.00;4983263;28;20109;-72
2022/05/15 05:18:55;;;;;;;12.07;5.43;;;;;;;9.89;99.92;102225.59;4988597;28;20041;-72
2022/05/15 05:21:20;;;;;;;14.32;3.72;;;;;;;10.02;100.00;102229.97;4971791;28;20109;-72
2022/05/15 05:23:46;;;;;;;9.73;3.63;;;;;;;10.12;100.00;102233.59;4983598;28;20034;-72
2022/05/15 05:26:11;;;;;;;10.45;3.65;;;;;;;10.16;100.00;102237.69;4979409;28;20038;-72
2022/05/15 05:28:36;;;;;;;17.55;4.15;;;;;;;10.23;100.00;102232.81;4974667;28;20534;-73
2022/05/15 05:31:02;;;;;;;17.27;4.40;;;;;;;10.15;100.00;102235.16;4941096;28;20043;-72
2022/05/15 05:33:27;;;;;;;16.08;4.10;;;;;;;10.15;100.00;102230.75;4958747;28;20118;-72
2022/05/15 05:35:53;;;;;;;12.52;3.70;;;;;;;10.33;100.00;102243.56;4959378;28;20033;-73
2022/05/15 05:38:19;;;;;;;18.65;4.28;;;;;;;10.43;100.00;102239.25;4982288;28;20517;-71
2022/05/15 05:40:44;;;;;;;16.98;4.20;;;;;;;10.57;100.00;102249.63;4956057;28;20050;-71
2022/05/15 05:43:10;;;;;;;19.23;4.93;;;;;;;10.77;100.00;102256.03;4982828;28;20444;-71
2022/05/15 05:45:36;;;;;;;13.73;3.90;;;;;;;10.95;100.00;102256.44;4981093;28;20065;-72
2022/05/15 05:48:02;;;;;;;19.30;3.92;;;;;;;11.03;100.00;102243.47;4961823;28;20031;-71
2022/05/15 05:50:28;;;;;;;16.17;4.20;;;;;;;11.22;100.00;102253.47;4980199;28;20022;-72
2022/05/15 05:52:54;;;;;;;17.83;4.57;;;;;;;11.27;100.00;102239.91;4980040;28;20081;-72
2022/05/15 05:55:23;;;;;;;12.20;4.60;;;;;;;11.33;100.00;102234.13;4962464;28;20057;-71
2022/05/15 05:57:49;;;;;;;12.77;3.83;;;;;;;11.56;100.00;102256.09;4976566;28;20027;-71
2022/05/15 06:00:19;;;;;;;12.23;3.45;;;;;;;11.81;99.37;102254.16;4970638;28;20035;-72
2022/05/15 06:02:45;;;;;;;18.23;3.92;;;;;;;12.00;97.60;102253.50;4977588;28;20084;-73
2022/05/15 06:05:11;;;;;;;21.52;5.35;;;;;;;12.17;97.41;102252.97;4980110;28;20030;-73
2022/05/15 06:07:37;;;;;;;15.02;3.92;;;;;;;12.34;96.72;102257.72;4978133;28;20042;-72
2022/05/15 06:10:07;;;;;;;19.30;3.97;;;;;;;12.46;95.19;102255.03;4972763;28;20046;-73
2022/05/15 06:12:32;;;;;;;15.00;3.47;;;;;;;12.60;94.71;102262.66;4978599;28;20409;-72
2022/05/15 06:14:58;;;;;;;12.52;4.35;;;;;;;12.59;93.91;102258.34;4974336;28;20027;-72
2022/05/15 06:17:26;;;;;;;11.57;3.63;;;;;;;12.77;94.02;102256.78;4963680;28;20090;-72
2022/05/15 06:19:51;;;;;;;19.38;3.67;;;;;;;13.00;93.15;102253.13;4978844;28;20142;-72
2022/05/15 06:22:17;;;;;;;14.43;4.15;;;;;;;13.05;90.70;102245.66;4978424;28;20034;-72
2022/05/15 06:24:43;;;;;;;7.97;2.55;;;;;;;13.29;90.46;102258.63;4953110;28;20030;-73
2022/05/15 06:27:09;;;;;;;14.18;3.60;;;;;;;13.37;87.73;102245.53;4957310;28;20027;-73
2022/05/15 06:29:37;;;;;;;9.13;3.47;;;;;;;13.77;86.34;102271.19;4969144;28;20201;-73
2022/05/15 06:32:03;;;;;;;13.23;3.28;;;;;;;14.14;85.72;102266.06;4977464;28;20022;-73
2022/05/15 06:34:29;;;;;;;13.63;4.00;;;;;;;14.45;83.71;102249.16;4959675;28;20493;-74
2022/05/15 06:36:54;;;;;;;16.95;4.60;;;;;;;15.10;81.91;102271.44;4953248;28;20470;-73
2022/05/15 06:39:19;;;;;;;13.57;4.00;;;;;;;15.39;81.10;102273.97;4959533;28;20078;-73
2022/05/15 06:41:49;;;;;;;10.93;3.45;;;;;;;15.79;78.90;102274.69;4976180;28;20022;-73
2022/05/15 06:44:16;;;;;;;17.75;3.83;;;;;;;16.28;76.10;102269.81;4977654;28;20475;-73
2022/05/15 06:46:42;;;;;;;14.05;3.85;;;;;;;16.99;74.10;102278.72;4977863;28;20037;-73
2022/05/15 06:49:07;;;;;;;14.05;3.05;;;;;;;17.58;71.96;102263.66;4981121;28;20041;-73
2022/05/15 06:51:33;;;;;;;14.05;3.58;;;;;;;18.14;70.16;102273.81;4961213;28;20030;-72
2022/05/15 06:53:58;;;;;;;15.68;3.92;;;;;;;18.54;68.88;102280.22;4979161;28;20038;-73
2022/05/15 06:59:07;;;;;;;11.90;4.32;;;;;;;19.16;65.28;102284.97;4979042;28;20049;-73
2022/05/15 07:01:33;;;;;;;10.43;3.10;;;;;;;19.53;63.99;102279.84;4977551;28;20038;-73
2022/05/15 07:03:58;;;;;;;11.05;3.45;;;;;;;19.72;65.15;102285.78;4984225;28;20117;-73
2022/05/15 07:06:24;;;;;;;12.07;3.03;;;;;;;20.03;62.21;102296.47;4977231;28;20449;-73
2022/05/15 07:08:49;;;;;;;11.13;3.38;;;;;;;20.03;63.64;102285.75;4982604;28;20038;-73
2022/05/15 07:11:15;;;;;;;10.07;3.20;;;;;;;19.86;61.17;102293.09;4965234;28;20093;-73
2022/05/15 07:13:41;;;;;;;13.60;3.83;;;;;;;19.49;63.43;102288.38;4954572;28;20026;-73
2022/05/15 07:16:07;;;;;;;13.50;3.25;;;;;;;20.48;60.89;102280.56;4963142;28;20557;-73
2022/05/15 07:18:32;;;;;;;9.32;3.20;;;;;;;21.28;58.66;102281.81;4975425;28;20553;-73
2022/05/15 07:20:59;;;;;;;14.10;3.38;;;;;;;21.48;58.99;102279.41;4961040;28;20110;-73
2022/05/15 07:23:26;;;;;;;12.23;3.22;;;;;;;20.99;57.06;102277.25;4952974;28;20062;-73
2022/05/15 07:25:52;;;;;;;10.55;3.17;;;;;;;20.47;59.97;102295.84;4981531;28;20030;-73
2022/05/15 07:28:18;;;;;;;14.93;3.22;;;;;;;21.08;58.89;102286.91;4978944;28;20047;-73
2022/05/15 07:30:43;;;;;;;12.10;3.45;;;;;;;21.07;59.21;102277.19;4964129;28;20069;-73
2022/05/15 07:33:08;;;;;;;11.43;3.00;;;;;;;21.43;57.72;102273.78;4956289;28;20560;-73
2022/05/15 07:35:34;;;;;;;9.23;3.35;;;;;;;21.93;55.97;102280.97;4979740;28;20614;-73
2022/05/15 07:38:00;;;;;;;9.75;3.00;;;;;;;22.72;55.08;102273.84;4957941;28;20038;-73
2022/05/15 07:40:25;;;;;;;10.50;2.88;;;;;;;22.93;53.34;102287.22;4979697;28;20038;-73
2022/05/15 07:42:51;;;;;;;9.88;2.70;;;;;;;22.74;53.94;102278.00;4957287;28;20037;-73
2022/05/15 07:45:17;;;;;;;9.27;2.53;;;;;;;23.68;51.91;102275.81;4977139;28;20035;-73
2022/05/15 07:47:43;;;;;;;9.88;3.05;;;;;;;24.57;50.28;102277.44;4980718;28;20097;-73
2022/05/15 07:50:10;;;;;;;10.20;3.08;;;;;;;24.21;50.88;102267.84;4958994;28;20053;-73
2022/05/15 07:52:36;;;;;;;11.60;2.95;;;;;;;23.98;50.10;102279.84;4979364;28;20123;-74
2022/05/15 07:55:02;;;;;;;9.55;3.00;;;;;;;24.22;49.07;102269.50;4982014;28;20058;-73
2022/05/15 07:57:28;;;;;;;11.25;2.80;;;;;;;24.28;49.55;102267.84;4969652;28;20117;-73
2022/05/15 07:59:53;;;;;;;9.52;2.80;;;;;;;24.12;50.27;102271.78;4954711;28;20030;-74
2022/05/15 08:02:19;;;;;;;9.40;3.33;;;;;;;22.61;52.27;102269.81;4963799;28;20069;-73
2022/05/15 08:10:12;;;;;;;8.75;3.00;;;;;;;23.75;51.42;102279.34;4969957;28;20104;-73
2022/05/15 08:12:38;;;;;;;10.98;3.00;;;;;;;24.50;49.90;102271.19;4981546;28;20023;-73
2022/05/15 08:15:06;;;;;;;7.35;2.22;;;;;;;25.71;49.33;102267.13;4953775;28;20116;-73
2022/05/15 08:17:31;;;;;;;9.57;2.90;;;;;;;26.55;45.96;102263.19;4979216;28;20074;-73
2022/05/15 08:25:26;;;;;;;8.00;2.80;;;;;;;24.51;47.80;102257.50;4973064;28;20635;-73
2022/05/15 08:27:51;;;;;;;9.00;2.60;;;;;;;25.45;45.37;102248.09;4980745;28;20027;-73
2022/05/15 08:30:17;;;;;;;10.05;2.42;;;;;;;25.64;46.43;102253.66;4933802;28;20085;-74
2022/05/15 08:32:44;;;;;;;9.88;2.50;;;;;;;25.28;46.13;102241.53;4971120;28;20165;-73
2022/05/15 08:35:09;;;;;;;7.38;2.33;;;;;;;25.13;47.31;102259.84;4979861;28;20493;-73
2022/05/15 08:37:35;;;;;;;7.00;2.45;;;;;;;26.65;44.54;102247.31;4957512;28;20030;-73
2022/05/15 08:40:01;;;;;;;7.22;2.05;;;;;;;27.25;43.31;102262.91;4945576;28;20034;-74
2022/05/15 08:42:48;;;;;;;7.88;2.92;;;;;;;27.27;43.16;102265.41;4983171;28;20083;-74
2022/05/15 08:45:17;;;;;;;5.18;2.05;;;;;;;27.32;43.65;102260.13;4977728;28;20038;-74
2022/05/15 08:47:46;;;;;;;6.13;2.33;;;;;;;28.14;41.63;102259.59;4979118;28;20077;-73
2022/05/15 08:50:17;;;;;;;9.02;2.30;;;;;;;26.85;42.42;102259.81;4977511;28;20402;-73
2022/05/15 08:52:57;;;;;;;8.15;2.30;;;;;;;25.84;43.45;102256.22;4977840;28;20030;-72
2022/05/15 08:55:24;;;;;;;;;;;;;;;25.81;44.27;102254.78;4979010;28;20019;-74
2022/05/15 08:58:14;;;;;;;6.85;1.90;;;;;;;25.76;44.86;102259.19;4976753;28;19956;-75
2022/05/15 09:00:50;;;;;;;7.20;2.42;;;;;;;27.15;44.05;102248.22;4978953;28;20041;-74
2022/05/15 09:03:23;;;;;;;8.10;2.47;;;;;;;26.29;43.95;102260.72;4979243;28;20527;-74
2022/05/15 09:06:07;;;;;;;7.15;2.17;;;;;;;27.09;41.28;102256.19;4984695;28;20030;-74
2022/05/15 09:09:10;;;;;;;7.45;2.10;;;;;;;26.81;41.89;102247.78;4980676;28;20474;-74
2022/05/15 09:12:02;;;;;;;4.63;1.58;;;;;;;25.72;42.84;102252.53;4976716;28;20046;-74
2022/05/15 09:14:56;;;;;;;8.35;2.15;;;;;;;25.84;43.85;102259.75;4962378;28;20437;-74
2022/05/15 09:17:50;;;;;;;5.63;1.83;;;;;;;27.82;40.63;102267.97;4977523;28;20381;-74
2022/05/15 09:20:43;;;;;;;5.10;1.70;;;;;;;28.72;41.16;102271.56;4978039;28;20034;-74
2022/05/15 09:23:16;;;;;;;9.05;2.22;;;;;;;29.86;36.91;102260.03;4976328;28;20383;-74
2022/05/15 09:25:42;;;;;;;5.50;1.95;;;;;;;28.01;40.39;102249.78;4975503;28;20053;-74
2022/05/15 09:28:15;;;;;;;4.18;1.88;;;;;;;28.11;39.01;102251.91;4953671;28;20022;-74
2022/05/15 09:30:46;;;;;;;4.07;1.63;;;;;;;28.20;40.13;102265.97;4959080;28;20037;-74
2022/05/15 09:33:35;;;;;;;6.43;1.85;;;;;;;29.72;37.01;102259.53;4973477;28;20022;-74
2022/05/15 09:36:34;;;;;;;5.90;1.40;;;;;;;28.31;40.33;102259.75;4973725;28;20458;-74
2022/05/15 09:39:18;;;;;;;5.20;2.15;;;;;;;30.38;36.52;102255.44;4978732;28;20034;-74
2022/05/15 09:44:33;;;;;;;4.55;1.40;;;;;;;28.61;38.07;102245.25;4979995;28;20549;-74
2022/05/15 09:47:10;;;;;;;6.70;1.73;;;;;;;28.24;39.42;102254.44;4975315;28;20023;-74
2022/05/15 09:49:36;;;;;;;5.28;1.75;;;;;;;29.15;38.23;102236.91;4971169;28;20093;-74
2022/05/15 09:52:10;;;;;;;5.78;1.85;;;;;;;30.22;36.12;102238.03;4957213;28;20035;-74
2022/05/15 09:54:38;;;;;;;3.78;1.38;;;;;;;28.55;37.50;102257.03;4969359;28;20037;-74
2022/05/15 09:57:24;;;;;;;4.95;1.88;;;;;;;29.07;37.92;102243.50;4959122;28;20077;-74
2022/05/15 09:59:58;;;;;;;5.47;1.60;;;;;;;28.20;38.68;102255.97;4959855;28;20117;-74
2022/05/15 10:02:46;;;;;;;4.63;1.52;;;;;;;27.65;40.21;102250.72;4974403;28;20085;-74
2022/05/15 10:05:14;;;;;;;5.35;1.58;;;;;;;29.77;37.90;102247.91;4979713;28;20474;-74
2022/05/15 10:07:44;;;;;;;4.38;1.40;;;;;;;29.39;38.10;102233.03;4973877;28;20050;-74
2022/05/15 10:10:23;;;;;;;;;;;;;;;30.35;35.29;102240.44;4977801;28;20031;-74
2022/05/15 10:13:06;;;;;;;5.68;1.60;;;;;;;30.70;35.10;102236.56;4984750;28;19921;-74
2022/05/15 10:15:40;;;;;;;5.20;1.70;;;;;;;28.30;38.03;102230.94;4968293;28;20030;-74
2022/05/15 10:18:10;;;;;;;5.55;1.52;;;;;;;29.14;35.96;102230.66;4974584;28;20110;-74
2022/05/15 10:20:40;;;;;;;5.65;1.48;;;;;;;27.36;39.75;102231.50;4971121;28;20034;-74
2022/05/15 10:23:14;;;;;;;4.32;1.50;;;;;;;27.00;39.54;102244.03;4975445;28;20149;-74
2022/05/15 10:25:48;;;;;;;4.53;1.45;;;;;;;27.38;38.82;102242.94;4975669;28;20409;-74
2022/05/15 10:28:32;;;;;;;4.88;1.42;;;;;;;28.14;39.46;102237.91;4983640;28;20062;-74
2022/05/15 10:31:04;;;;;;;3.50;1.15;;;;;;;27.65;37.33;102242.56;4979130;28;20029;-74
2022/05/15 10:33:35;;;;;;;6.38;1.83;;;;;;;28.22;37.46;102229.41;4975774;28;20092;-74
2022/05/15 10:36:27;;;;;;;3.95;1.38;;;;;;;30.29;35.90;102233.25;4976453;28;20482;-74
2022/05/15 10:39:09;;;;;;;3.95;1.42;;;;;;;32.17;34.42;102235.72;4979989;28;20023;-74
2022/05/15 10:42:02;;;;;;;7.55;2.00;;;;;;;31.20;34.87;102227.41;4963237;28;20042;-74
2022/05/15 10:45:00;;;;;;;5.15;1.40;;;;;;;31.90;32.20;102233.00;4984669;28;20438;-74
2022/05/15 10:47:39;;;;;;;8.45;1.80;;;;;;;32.35;33.76;102218.91;4984930;28;20042;-74
2022/05/15 10:50:18;;;;;;;6.25;1.50;;;;;;;31.97;33.05;102215.38;4965513;28;20091;-74
2022/05/15 10:57:21;;;;;;;4.75;1.40;;;;;;;28.91;35.66;102198.91;4982967;28;20145;-74
2022/05/15 10:59:13;;;;;;;4.45;1.35;;;;;;;31.72;33.99;102201.47;4957400;28;20580;-74
2022/05/15 11:01:55;;;;;;;5.75;1.63;;;;;;;32.69;32.89;102196.72;4980436;28;20034;-75
2022/05/15 11:04:44;;;;;;;4.82;1.60;;;;;;;33.04;32.79;102186.16;4978397;28;20034;-74
2022/05/15 11:07:42;;;;;;;5.00;1.63;;;;;;;31.76;32.96;102188.97;4958262;28;20078;-74
2022/05/15 11:10:15;;;;;;;5.07;1.92;;;;;;;28.60;36.05;102186.56;4970108;28;20054;-74
2022/05/15 11:12:47;;;;;;;8.60;1.85;;;;;;;30.59;35.78;102192.00;4980021;28;20022;-74
2022/05/15 11:15:39;;;;;;;4.63;1.75;;;;;;;30.23;34.65;102190.69;4974546;28;20042;-74
2022/05/15 11:18:16;;;;;;;5.45;1.77;;;;;;;30.09;34.99;102171.94;4985926;28;20156;-74
2022/05/15 11:20:53;;;;;;;6.85;2.13;;;;;;;26.44;37.66;102171.91;4978247;28;20148;-74
2022/05/15 11:23:32;;;;;;;4.85;1.60;;;;;;;26.47;40.46;102168.72;4973008;28;20040;-74
2022/05/15 11:26:08;;;;;;;4.72;1.63;;;;;;;26.75;41.55;102164.72;4982632;28;20026;-74
2022/05/15 11:28:42;;;;;;;6.25;1.90;;;;;;;27.04;41.30;102161.19;4964280;28;20438;-74
2022/05/15 11:31:30;;;;;;;4.82;1.58;;;;;;;27.86;40.15;102174.25;4973123;28;20338;-74
2022/05/15 11:33:59;;;;;;;5.57;1.80;;;;;;;30.21;36.35;102166.41;4995335;28;20117;-74
2022/05/15 11:36:24;;;;;;;5.90;2.05;;;;;;;28.37;37.62;102162.94;4966148;28;20034;-74
2022/05/15 11:38:55;;;;;;;8.07;1.93;;;;;;;27.00;38.51;102156.47;4963651;28;20049;-74
2022/05/15 11:41:35;;;;;;;6.60;1.83;;;;;;;26.79;40.94;102152.38;4980800;28;20376;-74
2022/05/15 11:44:20;;;;;;;;;;;;;;;27.72;40.54;102166.53;4979887;28;20034;-74
2022/05/15 11:46:45;;;;;;;6.72;1.95;;;;;;;29.59;34.93;102166.47;4973929;28;19948;-74
2022/05/15 11:49:34;;;;;;;7.30;2.20;;;;;;;28.17;37.63;102172.28;4976759;28;20033;-74
2022/05/15 11:52:05;;;;;;;8.75;2.00;;;;;;;28.05;39.98;102168.75;4976520;28;20045;-74
2022/05/15 11:54:37;;;;;;;6.03;2.10;;;;;;;26.86;40.98;102151.22;4971514;28;20122;-74
2022/05/15 11:57:07;;;;;;;6.57;1.95;;;;;;;27.65;40.10;102156.59;4971940;28;20030;-74
2022/05/15 11:59:54;;;;;;;5.50;1.70;;;;;;;29.30;37.80;102147.50;4983615;28;20084;-74